Dixie — WDC5441 — position and weather

sailwx.info

Track history (hours):
 
Tides and Currents Weather Stations Pressure Air Temp Water Temp Dewpoint Dewpoint Depression Visibility Wind Speed Wind Dir Waves Ship Positions

Dixie

Owner: TECHE TOWING INC., BERWICK, LA. More information available from US FCC via Universal Licensing System and Coast Guard Vessel Documentation Center.

Last reported at 2018-Sep-18 05:38 UTC. Time now 2018-Sep-19 06:44 UTC.
Position N 29°42' W 091°13'.

Length 15 m; draft 2.5 m.

Type: Tug. MMSI: 367041150.

Date/timePositionNaut miles runAvg speedWind from/ knotsBaromVisibWave heightAir tempDewpointWater temp
2018-Sep-18 05:38N 29°42' W 091°13'0 0.0
2018-Sep-18 05:25N 29°42' W 091°13'17 0.5
2018-Sep-16 18:23N 29°34' W 090°56'3 7.7
2018-Sep-16 17:59N 29°32' W 090°53'4 7.5
2018-Sep-16 17:30N 29°32' W 090°49'3 6.6
2018-Sep-16 17:03N 29°33' W 090°46'0 7.3
2018-Sep-16 17:00N 29°33' W 090°45'3 5.3
2018-Sep-16 16:30N 29°35' W 090°43'2 4.9
2018-Sep-16 16:03N 29°37' W 090°42'0 7.2
2018-Sep-16 16:00N 29°37' W 090°42'3 6.6
2018-Sep-16 15:30N 29°35' W 090°38'3 5.9
2018-Sep-16 15:03N 29°35' W 090°35'0 6.6
2018-Sep-16 15:00N 29°35' W 090°35'3 7.0
2018-Sep-16 14:30N 29°34' W 090°31'7 5.9
2018-Sep-16 13:15N 29°35' W 090°23'21 6.0
2018-Sep-16 09:47N 29°48' W 090°04'2 6.1
2018-Sep-16 09:29N 29°50' W 090°04'3 5.5
2018-Sep-16 09:00N 29°51' W 090°01'3 6.4
2018-Sep-16 08:28N 29°54' W 089°59'2 3.0
2018-Sep-16 07:55N 29°55' W 089°58'4 8.4
2018-Sep-16 07:28N 29°57' W 090°02'0 1.1
2018-Sep-16 07:03N 29°58' W 090°02'0 0.9
2018-Sep-16 07:00N 29°58' W 090°02'1 1.0
2018-Sep-16 06:30N 29°58' W 090°01'5 0.1
2018-Sep-14 20:48N 30°00' W 089°56'2 5.3
2018-Sep-14 20:28N 29°60' W 089°58'3 5.1
2018-Sep-14 19:58N 29°59' W 090°01'2 2.4
2018-Sep-14 19:20N 29°58' W 090°02'1 1.3
2018-Sep-14 18:53N 29°57' W 090°02'0 0.9
2018-Sep-14 18:30N 29°57' W 090°02'0 0.0
2018-Sep-14 18:03N 29°57' W 090°02'0 0.1
2018-Sep-14 18:00N 29°57' W 090°02'0 0.0
2018-Sep-14 17:30N 29°57' W 090°02'0 0.0
2018-Sep-14 17:03N 29°57' W 090°02'0 0.0
2018-Sep-14 17:00N 29°57' W 090°02'0 0.0
2018-Sep-14 16:30N 29°57' W 090°02'0 0.0
2018-Sep-14 16:03N 29°57' W 090°02'0 0.0
2018-Sep-14 16:00N 29°57' W 090°02'0 0.0
2018-Sep-14 15:30N 29°57' W 090°02'0 0.0
2018-Sep-14 15:03N 29°57' W 090°02'0 0.0
2018-Sep-14 15:00N 29°57' W 090°02'0 0.0
2018-Sep-14 14:30N 29°57' W 090°02'0 0.0
2018-Sep-14 14:00N 29°57' W 090°02'0 0.2
2018-Sep-14 13:30N 29°57' W 090°02'0 0.2
2018-Sep-14 13:03N 29°57' W 090°02'0 0.1
2018-Sep-14 13:00N 29°57' W 090°02'0 0.0
2018-Sep-14 12:30N 29°57' W 090°02'0 0.0
2018-Sep-14 12:03N 29°57' W 090°02'0 0.0
2018-Sep-14 12:00N 29°57' W 090°02'0 0.5
2018-Sep-14 11:30N 29°57' W 090°02'0 0.9
2018-Sep-14 11:03N 29°57' W 090°01'0 0.2
2018-Sep-14 11:00N 29°57' W 090°01'0 0.2
2018-Sep-14 10:28N 29°57' W 090°02'0 0.2
2018-Sep-14 10:03N 29°57' W 090°01'0 0.5
2018-Sep-14 10:00N 29°57' W 090°01'1 2.9
2018-Sep-14 09:30N 29°56' W 090°00'2 3.6
2018-Sep-14 08:55N 29°55' W 089°58'1 0.6
2018-Sep-14 07:17N 29°54' W 089°59'1 4.3
2018-Sep-14 06:59N 29°53' W 089°60'2 4.4
2018-Sep-14 06:26N 29°51' W 090°01'1 4.0
2018-Sep-14 06:03N 29°50' W 090°03'0 4.2
2018-Sep-14 05:58N 29°50' W 090°03'2 4.2
2018-Sep-14 05:29N 29°48' W 090°04'23 3.1
2018-Sep-13 21:58N 29°33' W 090°25'4 2.8
2018-Sep-13 20:40N 29°34' W 090°29'1 5.5
2018-Sep-13 20:30N 29°34' W 090°30'2 5.5
2018-Sep-13 20:03N 29°34' W 090°33'0 5.4
2018-Sep-13 19:59N 29°34' W 090°33'2 5.1
2018-Sep-13 19:30N 29°35' W 090°36'1 3.1
2018-Sep-13 19:03N 29°35' W 090°38'0 1.8
2018-Sep-13 19:00N 29°35' W 090°38'2 4.3
2018-Sep-13 18:30N 29°36' W 090°40'2 4.8
2018-Sep-13 18:03N 29°37' W 090°42'0 4.9
2018-Sep-13 18:00N 29°37' W 090°42'2 4.5
2018-Sep-13 17:30N 29°35' W 090°43'1 2.3
2018-Sep-13 17:03N 29°34' W 090°44'0 2.9
2018-Sep-13 17:00N 29°34' W 090°44'2 3.3
2018-Sep-13 16:30N 29°33' W 090°45'2 4.4
2018-Sep-13 16:03N 29°32' W 090°48'0 5.2
2018-Sep-13 16:00N 29°32' W 090°48'5 0.2
2018-Sep-12 19:40N 29°33' W 090°54'2 8.1
2018-Sep-12 19:27N 29°32' W 090°52'3 7.9
2018-Sep-12 19:03N 29°32' W 090°48'0 6.7
2018-Sep-12 19:00N 29°32' W 090°48'3 6.6
2018-Sep-12 18:30N 29°34' W 090°45'2 5.1
2018-Sep-12 18:03N 29°35' W 090°43'0 5.5
2018-Sep-12 18:00N 29°36' W 090°43'2 4.4
2018-Sep-12 17:30N 29°36' W 090°40'3 7.0
2018-Sep-12 17:03N 29°35' W 090°37'0 6.4
2018-Sep-12 17:00N 29°35' W 090°37'3 6.2
2018-Sep-12 16:30N 29°34' W 090°33'3 7.2
2018-Sep-12 16:03N 29°34' W 090°29'16 5.9
2018-Sep-12 13:24N 29°40' W 090°13'20 4.2
2018-Sep-12 08:42N 29°56' W 089°60'2 9.1
2018-Sep-12 08:30N 29°57' W 090°01'1 0.7
2018-Sep-12 07:20N 29°58' W 090°02'16 0.4
2018-Sep-10 11:17N 30°05' W 089°45'1 2.9
2018-Sep-10 10:51N 30°04' W 089°47'8 3.1
2018-Sep-10 08:17N 30°01' W 089°55'1 3.4
2018-Sep-10 08:03N 30°00' W 089°56'0 3.4
2018-Sep-10 07:59N 30°00' W 089°56'2 3.3
2018-Sep-10 07:30N 30°00' W 089°58'1 3.3
2018-Sep-10 07:03N 29°60' W 089°60'0 3.2
2018-Sep-10 07:00N 29°60' W 089°60'1 2.2
2018-Sep-10 06:28N 29°59' W 090°01'1 3.0
2018-Sep-10 06:03N 29°58' W 090°02'0 2.3
2018-Sep-10 06:00N 29°58' W 090°02'0 0.4
2018-Sep-10 05:26N 29°58' W 090°02'1 1.5
2018-Sep-10 05:02N 29°57' W 090°01'0 0.9
2018-Sep-10 05:00N 29°57' W 090°01'1 1.7
2018-Sep-10 04:30N 29°57' W 090°01'1 2.9
2018-Sep-10 04:03N 29°56' W 089°59'0 2.8
2018-Sep-10 04:00N 29°56' W 089°59'1 0.1
2018-Sep-09 19:22N 29°55' W 089°58'0 0.6
2018-Sep-09 18:58N 29°55' W 089°58'0 0.9
2018-Sep-09 18:30N 29°55' W 089°58'1 1.8
2018-Sep-09 18:03N 29°54' W 089°59'0 2.3
2018-Sep-09 17:59N 29°54' W 089°59'0 0.8
2018-Sep-09 17:25N 29°54' W 089°60'1 2.6
2018-Sep-09 16:58N 29°53' W 090°00'1 2.8
2018-Sep-09 16:26N 29°52' W 090°01'1 3.0
2018-Sep-09 16:03N 29°51' W 090°02'0 3.0
2018-Sep-09 16:00N 29°51' W 090°02'1 1.9
2018-Sep-09 15:30N 29°50' W 090°03'0 0.1
2018-Sep-09 14:21N 29°50' W 090°03'0 0.0
2018-Sep-09 12:55N 29°50' W 090°03'1 2.1
2018-Sep-09 12:29N 29°50' W 090°04'1 2.5
2018-Sep-09 12:01N 29°49' W 090°04'0 2.9
2018-Sep-09 12:00N 29°49' W 090°04'1 2.3
2018-Sep-09 11:29N 29°47' W 090°04'4 2.3
2018-Sep-09 09:53N 29°46' W 090°07'1 2.3
2018-Sep-09 09:30N 29°45' W 090°08'2 2.3
2018-Sep-09 08:48N 29°44' W 090°09'4 2.3
2018-Sep-09 07:10N 29°41' W 090°12'14 2.4
2018-Sep-09 01:34N 29°33' W 090°25'0 2.7
2018-Sep-09 01:29N 29°33' W 090°25'2 2.8
2018-Sep-09 00:44N 29°33' W 090°27'1 2.8
2018-Sep-09 00:30N 29°33' W 090°28'1 2.9
2018-Sep-09 00:03N 29°34' W 090°30'0 2.8
2018-Sep-09 00:00N 29°34' W 090°30'1 2.7
2018-Sep-08 23:30N 29°34' W 090°31'1 2.8
2018-Sep-08 23:03N 29°34' W 090°33'0 2.9
2018-Sep-08 23:00N 29°34' W 090°33'1 2.7
2018-Sep-08 22:30N 29°34' W 090°34'1 2.6
2018-Sep-08 22:03N 29°35' W 090°36'0 2.8
2018-Sep-08 22:00N 29°35' W 090°36'1 2.8
2018-Sep-08 21:30N 29°35' W 090°37'1 2.9
2018-Sep-08 21:03N 29°35' W 090°39'0 3.0
2018-Sep-08 21:00N 29°36' W 090°39'1 2.9
2018-Sep-08 20:30N 29°36' W 090°40'1 2.9
2018-Sep-08 20:03N 29°37' W 090°42'0 2.8
2018-Sep-08 20:00N 29°37' W 090°42'1 2.5
2018-Sep-08 19:30N 29°36' W 090°43'1 2.9
2018-Sep-08 19:03N 29°35' W 090°43'0 2.8
2018-Sep-08 19:00N 29°34' W 090°43'1 2.5
2018-Sep-08 18:30N 29°34' W 090°44'1 2.5
2018-Sep-08 18:03N 29°33' W 090°45'0 2.8
2018-Sep-08 18:00N 29°33' W 090°45'1 2.5
2018-Sep-08 17:30N 29°32' W 090°46'1 2.9
2018-Sep-08 17:03N 29°32' W 090°48'0 2.9
2018-Sep-08 17:00N 29°32' W 090°48'1 3.0
2018-Sep-08 16:30N 29°32' W 090°50'2 3.0
2018-Sep-08 16:00N 29°32' W 090°52'  
Track history (hours):
 
Tides and Currents Weather Stations Pressure Air Temp Water Temp Dewpoint Dewpoint Depression Visibility Wind Speed Wind Dir Waves Ship Positions

Dixie

Owner: TECHE TOWING INC., BERWICK, LA. More information available from US FCC via Universal Licensing System and Coast Guard Vessel Documentation Center.

Last reported at 2018-Sep-18 05:38 UTC. Time now 2018-Sep-19 06:44 UTC.
Position N 29°42' W 091°13'.

Length 15 m; draft 2.5 m.

Type: Tug. MMSI: 367041150.

Date/timePositionNaut miles runAvg speedWind from/ knotsBaromVisibWave heightAir tempDewpointWater temp
2018-Sep-18 05:38N 29°42' W 091°13'0 0.0
2018-Sep-18 05:25N 29°42' W 091°13'17 0.5
2018-Sep-16 18:23N 29°34' W 090°56'3 7.7
2018-Sep-16 17:59N 29°32' W 090°53'4 7.5
2018-Sep-16 17:30N 29°32' W 090°49'3 6.6
2018-Sep-16 17:03N 29°33' W 090°46'0 7.3
2018-Sep-16 17:00N 29°33' W 090°45'3 5.3
2018-Sep-16 16:30N 29°35' W 090°43'2 4.9
2018-Sep-16 16:03N 29°37' W 090°42'0 7.2
2018-Sep-16 16:00N 29°37' W 090°42'3 6.6
2018-Sep-16 15:30N 29°35' W 090°38'3 5.9
2018-Sep-16 15:03N 29°35' W 090°35'0 6.6
2018-Sep-16 15:00N 29°35' W 090°35'3 7.0
2018-Sep-16 14:30N 29°34' W 090°31'7 5.9
2018-Sep-16 13:15N 29°35' W 090°23'21 6.0
2018-Sep-16 09:47N 29°48' W 090°04'2 6.1
2018-Sep-16 09:29N 29°50' W 090°04'3 5.5
2018-Sep-16 09:00N 29°51' W 090°01'3 6.4
2018-Sep-16 08:28N 29°54' W 089°59'2 3.0
2018-Sep-16 07:55N 29°55' W 089°58'4 8.4
2018-Sep-16 07:28N 29°57' W 090°02'0 1.1
2018-Sep-16 07:03N 29°58' W 090°02'0 0.9
2018-Sep-16 07:00N 29°58' W 090°02'1 1.0
2018-Sep-16 06:30N 29°58' W 090°01'5 0.1
2018-Sep-14 20:48N 30°00' W 089°56'2 5.3
2018-Sep-14 20:28N 29°60' W 089°58'3 5.1
2018-Sep-14 19:58N 29°59' W 090°01'2 2.4
2018-Sep-14 19:20N 29°58' W 090°02'1 1.3
2018-Sep-14 18:53N 29°57' W 090°02'0 0.9
2018-Sep-14 18:30N 29°57' W 090°02'0 0.0
2018-Sep-14 18:03N 29°57' W 090°02'0 0.1
2018-Sep-14 18:00N 29°57' W 090°02'0 0.0
2018-Sep-14 17:30N 29°57' W 090°02'0 0.0
2018-Sep-14 17:03N 29°57' W 090°02'0 0.0
2018-Sep-14 17:00N 29°57' W 090°02'0 0.0
2018-Sep-14 16:30N 29°57' W 090°02'0 0.0
2018-Sep-14 16:03N 29°57' W 090°02'0 0.0
2018-Sep-14 16:00N 29°57' W 090°02'0 0.0
2018-Sep-14 15:30N 29°57' W 090°02'0 0.0
2018-Sep-14 15:03N 29°57' W 090°02'0 0.0
2018-Sep-14 15:00N 29°57' W 090°02'0 0.0
2018-Sep-14 14:30N 29°57' W 090°02'0 0.0
2018-Sep-14 14:00N 29°57' W 090°02'0 0.2
2018-Sep-14 13:30N 29°57' W 090°02'0 0.2
2018-Sep-14 13:03N 29°57' W 090°02'0 0.1
2018-Sep-14 13:00N 29°57' W 090°02'0 0.0
2018-Sep-14 12:30N 29°57' W 090°02'0 0.0
2018-Sep-14 12:03N 29°57' W 090°02'0 0.0
2018-Sep-14 12:00N 29°57' W 090°02'0 0.5
2018-Sep-14 11:30N 29°57' W 090°02'0 0.9
2018-Sep-14 11:03N 29°57' W 090°01'0 0.2
2018-Sep-14 11:00N 29°57' W 090°01'0 0.2
2018-Sep-14 10:28N 29°57' W 090°02'0 0.2
2018-Sep-14 10:03N 29°57' W 090°01'0 0.5
2018-Sep-14 10:00N 29°57' W 090°01'1 2.9
2018-Sep-14 09:30N 29°56' W 090°00'2 3.6
2018-Sep-14 08:55N 29°55' W 089°58'1 0.6
2018-Sep-14 07:17N 29°54' W 089°59'1 4.3
2018-Sep-14 06:59N 29°53' W 089°60'2 4.4
2018-Sep-14 06:26N 29°51' W 090°01'1 4.0
2018-Sep-14 06:03N 29°50' W 090°03'0 4.2
2018-Sep-14 05:58N 29°50' W 090°03'2 4.2
2018-Sep-14 05:29N 29°48' W 090°04'23 3.1
2018-Sep-13 21:58N 29°33' W 090°25'4 2.8
2018-Sep-13 20:40N 29°34' W 090°29'1 5.5
2018-Sep-13 20:30N 29°34' W 090°30'2 5.5
2018-Sep-13 20:03N 29°34' W 090°33'0 5.4
2018-Sep-13 19:59N 29°34' W 090°33'2 5.1
2018-Sep-13 19:30N 29°35' W 090°36'1 3.1
2018-Sep-13 19:03N 29°35' W 090°38'0 1.8
2018-Sep-13 19:00N 29°35' W 090°38'2 4.3
2018-Sep-13 18:30N 29°36' W 090°40'2 4.8
2018-Sep-13 18:03N 29°37' W 090°42'0 4.9
2018-Sep-13 18:00N 29°37' W 090°42'2 4.5
2018-Sep-13 17:30N 29°35' W 090°43'1 2.3
2018-Sep-13 17:03N 29°34' W 090°44'0 2.9
2018-Sep-13 17:00N 29°34' W 090°44'2 3.3
2018-Sep-13 16:30N 29°33' W 090°45'2 4.4
2018-Sep-13 16:03N 29°32' W 090°48'0 5.2
2018-Sep-13 16:00N 29°32' W 090°48'5 0.2
2018-Sep-12 19:40N 29°33' W 090°54'2 8.1
2018-Sep-12 19:27N 29°32' W 090°52'3 7.9
2018-Sep-12 19:03N 29°32' W 090°48'0 6.7
2018-Sep-12 19:00N 29°32' W 090°48'3 6.6
2018-Sep-12 18:30N 29°34' W 090°45'2 5.1
2018-Sep-12 18:03N 29°35' W 090°43'0 5.5
2018-Sep-12 18:00N 29°36' W 090°43'2 4.4
2018-Sep-12 17:30N 29°36' W 090°40'3 7.0
2018-Sep-12 17:03N 29°35' W 090°37'0 6.4
2018-Sep-12 17:00N 29°35' W 090°37'3 6.2
2018-Sep-12 16:30N 29°34' W 090°33'3 7.2
2018-Sep-12 16:03N 29°34' W 090°29'16 5.9
2018-Sep-12 13:24N 29°40' W 090°13'20 4.2
2018-Sep-12 08:42N 29°56' W 089°60'2 9.1
2018-Sep-12 08:30N 29°57' W 090°01'1 0.7
2018-Sep-12 07:20N 29°58' W 090°02'16 0.4
2018-Sep-10 11:17N 30°05' W 089°45'1 2.9
2018-Sep-10 10:51N 30°04' W 089°47'8 3.1
2018-Sep-10 08:17N 30°01' W 089°55'1 3.4
2018-Sep-10 08:03N 30°00' W 089°56'0 3.4
2018-Sep-10 07:59N 30°00' W 089°56'2 3.3
2018-Sep-10 07:30N 30°00' W 089°58'1 3.3
2018-Sep-10 07:03N 29°60' W 089°60'0 3.2
2018-Sep-10 07:00N 29°60' W 089°60'1 2.2
2018-Sep-10 06:28N 29°59' W 090°01'1 3.0
2018-Sep-10 06:03N 29°58' W 090°02'0 2.3
2018-Sep-10 06:00N 29°58' W 090°02'0 0.4
2018-Sep-10 05:26N 29°58' W 090°02'1 1.5
2018-Sep-10 05:02N 29°57' W 090°01'0 0.9
2018-Sep-10 05:00N 29°57' W 090°01'1 1.7
2018-Sep-10 04:30N 29°57' W 090°01'1 2.9
2018-Sep-10 04:03N 29°56' W 089°59'0 2.8
2018-Sep-10 04:00N 29°56' W 089°59'1 0.1
2018-Sep-09 19:22N 29°55' W 089°58'0 0.6
2018-Sep-09 18:58N 29°55' W 089°58'0 0.9
2018-Sep-09 18:30N 29°55' W 089°58'1 1.8
2018-Sep-09 18:03N 29°54' W 089°59'0 2.3
2018-Sep-09 17:59N 29°54' W 089°59'0 0.8
2018-Sep-09 17:25N 29°54' W 089°60'1 2.6
2018-Sep-09 16:58N 29°53' W 090°00'1 2.8
2018-Sep-09 16:26N 29°52' W 090°01'1 3.0
2018-Sep-09 16:03N 29°51' W 090°02'0 3.0
2018-Sep-09 16:00N 29°51' W 090°02'1 1.9
2018-Sep-09 15:30N 29°50' W 090°03'0 0.1
2018-Sep-09 14:21N 29°50' W 090°03'0 0.0
2018-Sep-09 12:55N 29°50' W 090°03'1 2.1
2018-Sep-09 12:29N 29°50' W 090°04'1 2.5
2018-Sep-09 12:01N 29°49' W 090°04'0 2.9
2018-Sep-09 12:00N 29°49' W 090°04'1 2.3
2018-Sep-09 11:29N 29°47' W 090°04'4 2.3
2018-Sep-09 09:53N 29°46' W 090°07'1 2.3
2018-Sep-09 09:30N 29°45' W 090°08'2 2.3
2018-Sep-09 08:48N 29°44' W 090°09'4 2.3
2018-Sep-09 07:10N 29°41' W 090°12'14 2.4
2018-Sep-09 01:34N 29°33' W 090°25'0 2.7
2018-Sep-09 01:29N 29°33' W 090°25'2 2.8
2018-Sep-09 00:44N 29°33' W 090°27'1 2.8
2018-Sep-09 00:30N 29°33' W 090°28'1 2.9
2018-Sep-09 00:03N 29°34' W 090°30'0 2.8
2018-Sep-09 00:00N 29°34' W 090°30'1 2.7
2018-Sep-08 23:30N 29°34' W 090°31'1 2.8
2018-Sep-08 23:03N 29°34' W 090°33'0 2.9
2018-Sep-08 23:00N 29°34' W 090°33'1 2.7
2018-Sep-08 22:30N 29°34' W 090°34'1 2.6
2018-Sep-08 22:03N 29°35' W 090°36'0 2.8
2018-Sep-08 22:00N 29°35' W 090°36'1 2.8
2018-Sep-08 21:30N 29°35' W 090°37'1 2.9
2018-Sep-08 21:03N 29°35' W 090°39'0 3.0
2018-Sep-08 21:00N 29°36' W 090°39'1 2.9
2018-Sep-08 20:30N 29°36' W 090°40'1 2.9
2018-Sep-08 20:03N 29°37' W 090°42'0 2.8
2018-Sep-08 20:00N 29°37' W 090°42'1 2.5
2018-Sep-08 19:30N 29°36' W 090°43'1 2.9
2018-Sep-08 19:03N 29°35' W 090°43'0 2.8
2018-Sep-08 19:00N 29°34' W 090°43'1 2.5
2018-Sep-08 18:30N 29°34' W 090°44'1 2.5
2018-Sep-08 18:03N 29°33' W 090°45'0 2.8
2018-Sep-08 18:00N 29°33' W 090°45'1 2.5
2018-Sep-08 17:30N 29°32' W 090°46'1 2.9
2018-Sep-08 17:03N 29°32' W 090°48'0 2.9
2018-Sep-08 17:00N 29°32' W 090°48'1 3.0
2018-Sep-08 16:30N 29°32' W 090°50'2 3.0
2018-Sep-08 16:00N 29°32' W 090°52'  

Dump ship's entire track history